Time;durP1;ratioP1;P1;durP2;ratioP2;P2;SDS_P1;SDS_P2;PMS_P1;PMS_P2;Temp;Humidity;BMP_temperature;BMP_pressure;BME280_temperature;BME280_humidity;BME280_pressure;Samples;Min_cycle;Max_cycle;Signal;HPM_P1;HPM_P2
2023/01/17 00:02:06;;;;;;;;;;;3.60;99.90;;;;;;5018562;28;20193;-72
2023/01/17 00:10:18;;;;;;;;;;;3.70;99.90;;;;;;5003908;28;19917;-76
2023/01/17 00:12:45;;;;;;;;;;;3.70;99.90;;;;;;5007225;28;19964;-75
2023/01/17 00:15:11;;;;;;;;;;;3.70;99.90;;;;;;5010138;28;19919;-74
2023/01/17 00:17:36;;;;;;;;;;;3.60;99.90;;;;;;5020973;28;20089;-72
2023/01/17 01:34:58;;;;;;;;;;;3.00;99.90;;;;;;5023389;28;19947;-75
2023/01/17 01:37:23;;;;;;;;;;;3.10;99.90;;;;;;5045096;28;19980;-76
2023/01/17 01:39:49;;;;;;;;;;;3.10;99.90;;;;;;5037585;28;20050;-75
2023/01/17 01:42:15;;;;;;;;;;;3.10;99.90;;;;;;5029955;28;19924;-75
2023/01/17 01:44:48;;;;;;;;;;;3.10;99.90;;;;;;5027972;28;19955;-74
2023/01/17 01:47:21;;;;;;;;;;;3.10;99.90;;;;;;5016065;28;19910;-74
2023/01/17 01:49:47;;;;;;;;;;;3.20;99.90;;;;;;5016677;28;20390;-75
2023/01/17 01:52:14;;;;;;;;;;;3.10;99.90;;;;;;5017046;28;19952;-74
2023/01/17 01:54:46;;;;;;;;;;;3.10;99.90;;;;;;5021678;28;20295;-75
2023/01/17 01:57:14;;;;;;;;;;;3.10;99.90;;;;;;5018975;28;20170;-74
2023/01/17 01:59:43;;;;;;;;;;;3.20;99.90;;;;;;5017706;28;19940;-76
2023/01/17 02:02:09;;;;;;;;;;;3.10;99.90;;;;;;5024358;28;19949;-74
2023/01/17 02:04:35;;;;;;;;;;;3.20;99.90;;;;;;5023025;28;19918;-73
2023/01/17 02:07:11;;;;;;;;;;;3.10;99.90;;;;;;5026594;28;19947;-74
2023/01/17 02:09:39;;;;;;;;;;;3.10;99.90;;;;;;5016916;28;19913;-75
2023/01/17 02:12:06;;;;;;;;;;;3.20;99.90;;;;;;5028176;28;19975;-75
2023/01/17 02:14:31;;;;;;;;;;;3.10;99.90;;;;;;5026239;28;19909;-76
2023/01/17 02:17:11;;;;;;;;;;;3.00;99.90;;;;;;5021665;28;19921;-74
2023/01/17 02:19:55;;;;;;;;;;;3.20;99.90;;;;;;5018593;28;20283;-74
2023/01/17 02:22:26;;;;;;;;;;;3.10;99.90;;;;;;5020748;28;20276;-75
2023/01/17 02:24:55;;;;;;;;;;;3.00;99.90;;;;;;5014103;28;19909;-74
2023/01/17 02:27:24;;;;;;;;;;;3.00;99.90;;;;;;5022595;28;20421;-75
2023/01/17 02:30:08;;;;;;;;;;;2.90;99.90;;;;;;5018058;28;19928;-74
2023/01/17 02:32:42;;;;;;;;;;;2.80;99.90;;;;;;4998662;28;20414;-74
2023/01/17 02:35:11;;;;;;;;;;;2.70;99.90;;;;;;5004802;28;20363;-74
2023/01/17 02:37:47;;;;;;;;;;;2.70;99.90;;;;;;5018492;28;19917;-75
2023/01/17 02:40:15;;;;;;;;;;;2.70;99.90;;;;;;5012785;28;19914;-74
2023/01/17 02:43:01;;;;;;;;;;;2.80;99.90;;;;;;5017063;28;19952;-74
2023/01/17 02:45:27;;;;;;;;;;;2.80;99.90;;;;;;5014763;28;19917;-74
2023/01/17 02:47:53;;;;;;;;;;;2.80;99.90;;;;;;5018690;28;19916;-74
2023/01/17 02:50:20;;;;;;;;;;;2.70;99.90;;;;;;5014512;28;19952;-74
2023/01/17 02:53:01;;;;;;;;;;;2.80;99.90;;;;;;5033564;28;19916;-75
2023/01/17 02:55:41;;;;;;;;;;;2.80;99.90;;;;;;5019838;28;20016;-73
2023/01/17 02:58:23;;;;;;;;;;;2.90;99.90;;;;;;5020518;28;19920;-75
2023/01/17 03:00:48;;;;;;;;;;;3.00;99.90;;;;;;5013586;28;21095;-76
2023/01/17 03:03:20;;;;;;;;;;;2.90;99.90;;;;;;5024172;28;20160;-74
2023/01/17 03:05:53;;;;;;;;;;;3.00;99.90;;;;;;5018949;28;19940;-74
2023/01/17 03:08:19;;;;;;;;;;;3.00;99.90;;;;;;4997216;28;20299;-75
2023/01/17 03:10:44;;;;;;;;;;;2.90;99.90;;;;;;5019042;28;19909;-74
2023/01/17 03:13:10;;;;;;;;;;;2.80;99.90;;;;;;5014277;28;20044;-74
2023/01/17 03:15:37;;;;;;;;;;;2.90;99.90;;;;;;5010988;28;19917;-78
2023/01/17 03:18:04;;;;;;;;;;;2.90;99.90;;;;;;5010564;28;19913;-73
2023/01/17 03:20:29;;;;;;;;;;;2.80;99.90;;;;;;5016259;28;20351;-75
2023/01/17 03:22:55;;;;;;;;;;;2.80;99.90;;;;;;5014331;28;20450;-78
2023/01/17 03:25:21;;;;;;;;;;;2.70;99.90;;;;;;5020666;28;19909;-75
2023/01/17 03:27:46;;;;;;;;;;;2.90;99.90;;;;;;5024046;28;19949;-75
2023/01/17 03:30:12;;;;;;;;;;;2.90;99.90;;;;;;5018620;28;19981;-73
2023/01/17 03:32:38;;;;;;;;;;;2.90;99.90;;;;;;5015015;28;19910;-75
2023/01/17 03:35:04;;;;;;;;;;;2.80;99.90;;;;;;5023110;28;19932;-76
2023/01/17 03:37:29;;;;;;;;;;;2.90;99.90;;;;;;5019686;28;19918;-75
2023/01/17 03:39:55;;;;;;;;;;;2.90;99.90;;;;;;5024713;28;19910;-75
2023/01/17 03:42:21;;;;;;;;;;;2.90;99.90;;;;;;5028713;28;19916;-75
2023/01/17 03:44:46;;;;;;;;;;;3.00;99.90;;;;;;5019577;28;19909;-75
2023/01/17 03:47:12;;;;;;;;;;;3.10;99.90;;;;;;5021191;28;19952;-75
2023/01/17 03:49:38;;;;;;;;;;;3.10;99.90;;;;;;5026908;28;20430;-74
2023/01/17 03:52:04;;;;;;;;;;;3.00;99.90;;;;;;5027933;28;19909;-74
2023/01/17 03:54:29;;;;;;;;;;;2.80;99.90;;;;;;5024934;28;19932;-74
2023/01/17 03:56:55;;;;;;;;;;;2.90;99.90;;;;;;5027554;28;20122;-74
2023/01/17 03:59:20;;;;;;;;;;;2.70;99.90;;;;;;5016112;28;19917;-77
2023/01/17 04:01:46;;;;;;;;;;;2.70;99.90;;;;;;5020241;28;19909;-78
2023/01/17 04:04:12;;;;;;;;;;;2.60;99.90;;;;;;5001656;28;20005;-75
2023/01/17 04:06:37;;;;;;;;;;;2.50;99.90;;;;;;5013184;28;19917;-75
2023/01/17 04:09:03;;;;;;;;;;;2.60;99.90;;;;;;5023879;28;19910;-74
2023/01/17 04:11:28;;;;;;;;;;;2.50;99.90;;;;;;5025956;28;19913;-77
2023/01/17 04:13:54;;;;;;;;;;;2.50;99.90;;;;;;5028530;28;19916;-77
2023/01/17 04:16:20;;;;;;;;;;;2.50;99.90;;;;;;5021961;28;19925;-74
2023/01/17 04:18:46;;;;;;;;;;;2.60;99.90;;;;;;5013161;28;20370;-75
2023/01/17 04:21:12;;;;;;;;;;;2.50;99.90;;;;;;5011782;28;19917;-75
2023/01/17 04:23:37;;;;;;;;;;;2.50;99.90;;;;;;5013606;28;19910;-73
2023/01/17 04:26:03;;;;;;;;;;;2.50;99.90;;;;;;5020312;28;19989;-76
2023/01/17 04:28:30;;;;;;;;;;;2.30;99.90;;;;;;5013078;28;20456;-77
2023/01/17 04:30:59;;;;;;;;;;;2.30;99.90;;;;;;5014391;28;19909;-75
2023/01/17 04:33:24;;;;;;;;;;;2.30;99.90;;;;;;5016457;28;19913;-74
2023/01/17 04:35:56;;;;;;;;;;;2.20;99.90;;;;;;5017699;28;19940;-74
2023/01/17 04:38:22;;;;;;;;;;;2.20;99.90;;;;;;5022243;28;19945;-75
2023/01/17 04:40:48;;;;;;;;;;;2.20;99.90;;;;;;5018247;28;19921;-75
2023/01/17 04:43:13;;;;;;;;;;;2.20;99.90;;;;;;5030015;28;19910;-76
2023/01/17 04:45:39;;;;;;;;;;;2.30;99.90;;;;;;5023780;28;19913;-74
2023/01/17 04:48:05;;;;;;;;;;;2.30;99.90;;;;;;5020674;28;19925;-74
2023/01/17 04:50:31;;;;;;;;;;;2.20;99.90;;;;;;5019635;28;19937;-74
2023/01/17 04:52:57;;;;;;;;;;;2.30;99.90;;;;;;5025194;28;20545;-75
2023/01/17 04:55:22;;;;;;;;;;;2.40;99.90;;;;;;5023093;28;20351;-75
2023/01/17 04:57:48;;;;;;;;;;;2.30;99.90;;;;;;5030147;28;19949;-74
2023/01/17 05:00:14;;;;;;;;;;;2.30;99.90;;;;;;5031344;28;19951;-76
2023/01/17 05:02:39;;;;;;;;;;;2.30;99.90;;;;;;5037180;28;19914;-77
2023/01/17 05:05:06;;;;;;;;;;;2.40;99.90;;;;;;5024909;28;19953;-74
2023/01/17 05:07:31;;;;;;;;;;;2.40;99.90;;;;;;5014371;28;20126;-76
2023/01/17 05:09:59;;;;;;;;;;;2.40;99.90;;;;;;5020341;28;19921;-74
2023/01/17 05:12:25;;;;;;;;;;;2.40;99.90;;;;;;5009294;28;19909;-74
2023/01/17 05:14:51;;;;;;;;;;;2.30;99.90;;;;;;5008448;28;19917;-75
2023/01/17 05:17:16;;;;;;;;;;;2.30;99.90;;;;;;5014373;28;19963;-76
2023/01/17 05:19:42;;;;;;;;;;;2.40;99.90;;;;;;5013902;28;20020;-74
2023/01/17 05:22:13;;;;;;;;;;;2.40;99.90;;;;;;5020274;28;19935;-76
2023/01/17 05:24:42;;;;;;;;;;;2.60;99.90;;;;;;5033284;28;19897;-77
2023/01/17 05:27:08;;;;;;;;;;;2.60;99.90;;;;;;5025037;28;19909;-75
2023/01/17 05:29:34;;;;;;;;;;;2.70;99.90;;;;;;5020651;28;19933;-75
2023/01/17 05:31:59;;;;;;;;;;;2.70;99.90;;;;;;5016627;28;19913;-75
2023/01/17 05:34:25;;;;;;;;;;;2.80;99.90;;;;;;5011400;28;19913;-75
2023/01/17 05:36:50;;;;;;;;;;;2.80;99.90;;;;;;5003352;28;19917;-74
2023/01/17 05:39:16;;;;;;;;;;;2.80;99.90;;;;;;5014742;28;19963;-74
2023/01/17 05:41:41;;;;;;;;;;;2.80;99.90;;;;;;5010124;28;20368;-79
2023/01/17 05:44:07;;;;;;;;;;;2.80;99.90;;;;;;5015268;28;19917;-75
2023/01/17 05:46:32;;;;;;;;;;;2.70;99.90;;;;;;5017136;28;19922;-74
2023/01/17 05:48:58;;;;;;;;;;;2.60;99.90;;;;;;5006169;28;19940;-74
2023/01/17 05:51:23;;;;;;;;;;;2.50;99.90;;;;;;5005871;28;19920;-76
2023/01/17 05:53:49;;;;;;;;;;;2.50;99.90;;;;;;5006830;28;20318;-75
2023/01/17 05:56:14;;;;;;;;;;;2.50;99.90;;;;;;5014666;28;19918;-76
2023/01/17 05:58:40;;;;;;;;;;;2.40;99.90;;;;;;5009602;28;19919;-73
2023/01/17 06:01:05;;;;;;;;;;;2.40;99.90;;;;;;5009585;28;19914;-76
2023/01/17 06:03:31;;;;;;;;;;;2.50;99.90;;;;;;5005345;28;20367;-74
2023/01/17 06:05:57;;;;;;;;;;;2.40;99.90;;;;;;5005795;28;19967;-77
2023/01/17 06:08:22;;;;;;;;;;;2.50;99.90;;;;;;5005769;28;20418;-75
2023/01/17 06:10:48;;;;;;;;;;;2.60;99.90;;;;;;5006297;28;20033;-76
2023/01/17 06:13:15;;;;;;;;;;;2.50;99.90;;;;;;5009523;28;19920;-77
2023/01/17 06:15:41;;;;;;;;;;;2.50;99.90;;;;;;5014446;28;19961;-76
2023/01/17 06:18:07;;;;;;;;;;;2.50;99.90;;;;;;5008977;28;19963;-74
2023/01/17 06:20:33;;;;;;;;;;;2.50;99.90;;;;;;5011144;28;19914;-76
2023/01/17 06:23:03;;;;;;;;;;;2.50;99.90;;;;;;4994710;28;19928;-73
2023/01/17 06:25:29;;;;;;;;;;;2.50;99.90;;;;;;5010242;28;20016;-79
2023/01/17 06:27:55;;;;;;;;;;;2.50;99.90;;;;;;5008363;28;19940;-74
2023/01/17 06:30:20;;;;;;;;;;;2.50;99.90;;;;;;5001125;28;20387;-76
2023/01/17 06:32:55;;;;;;;;;;;2.30;99.90;;;;;;5001933;28;19910;-75
2023/01/17 06:35:21;;;;;;;;;;;2.40;99.90;;;;;;5000512;28;20438;-78
2023/01/17 06:37:51;;;;;;;;;;;2.40;99.90;;;;;;4999695;28;20414;-77
2023/01/17 06:40:16;;;;;;;;;;;2.30;99.90;;;;;;5002623;28;20314;-78
2023/01/17 06:42:42;;;;;;;;;;;2.40;99.90;;;;;;5004157;28;20378;-75
2023/01/17 06:45:08;;;;;;;;;;;2.40;99.90;;;;;;4996986;28;19914;-76
2023/01/17 06:47:36;;;;;;;;;;;2.20;99.90;;;;;;5010485;28;20121;-75
2023/01/17 06:50:02;;;;;;;;;;;2.20;99.90;;;;;;5003152;28;19925;-77
2023/01/17 06:52:27;;;;;;;;;;;2.10;99.90;;;;;;4996412;28;19910;-75
2023/01/17 06:54:53;;;;;;;;;;;2.00;99.90;;;;;;5009710;28;20373;-75
2023/01/17 06:57:18;;;;;;;;;;;2.10;99.90;;;;;;5003739;28;19920;-76
2023/01/17 06:59:44;;;;;;;;;;;2.10;99.90;;;;;;5000611;28;20065;-77
2023/01/17 07:02:10;;;;;;;;;;;2.20;99.90;;;;;;5002418;28;20001;-74
2023/01/17 07:04:35;;;;;;;;;;;2.30;99.90;;;;;;5008279;28;19914;-74
2023/01/17 07:07:01;;;;;;;;;;;2.20;99.90;;;;;;5004860;28;19936;-75
2023/01/17 07:09:26;;;;;;;;;;;2.10;99.90;;;;;;5005610;28;19944;-76
2023/01/17 07:11:58;;;;;;;;;;;2.10;99.90;;;;;;5009991;28;19916;-75
2023/01/17 07:14:24;;;;;;;;;;;2.20;99.90;;;;;;5005369;28;19972;-74
2023/01/17 07:16:49;;;;;;;;;;;2.20;99.90;;;;;;5022650;28;20110;-77
2023/01/17 07:19:15;;;;;;;;;;;2.10;99.90;;;;;;5015649;28;20003;-76
2023/01/17 07:21:40;;;;;;;;;;;2.00;99.90;;;;;;5018215;28;19913;-74
2023/01/17 07:24:06;;;;;;;;;;;2.00;99.90;;;;;;5019767;28;19909;-75
2023/01/17 07:26:32;;;;;;;;;;;2.10;99.90;;;;;;5024198;28;19932;-77
2023/01/17 07:28:58;;;;;;;;;;;2.00;99.90;;;;;;5014540;28;19909;-76
2023/01/17 07:31:23;;;;;;;;;;;1.90;99.90;;;;;;5016628;28;20288;-79
2023/01/17 07:33:48;;;;;;;;;;;1.90;99.90;;;;;;5006809;28;19964;-77
2023/01/17 07:36:14;;;;;;;;;;;1.90;99.90;;;;;;5009655;28;19917;-80
2023/01/17 07:38:40;;;;;;;;;;;1.80;99.90;;;;;;5000417;28;19955;-75
2023/01/17 07:41:05;;;;;;;;;;;1.90;99.90;;;;;;4994871;28;20437;-78
2023/01/17 07:43:31;;;;;;;;;;;1.90;99.90;;;;;;4998190;28;20098;-78
2023/01/17 07:45:57;;;;;;;;;;;1.90;99.90;;;;;;4997525;28;20016;-77
2023/01/17 07:48:23;;;;;;;;;;;1.90;99.90;;;;;;5001669;28;20149;-74
2023/01/17 07:50:53;;;;;;;;;;;2.00;99.90;;;;;;5003465;28;19949;-77
2023/01/17 07:53:18;;;;;;;;;;;2.00;99.90;;;;;;4993314;28;19968;-76
2023/01/17 07:55:44;;;;;;;;;;;2.10;99.90;;;;;;4993340;28;20262;-78
2023/01/17 07:58:10;;;;;;;;;;;2.10;99.90;;;;;;4998020;28;20131;-76
2023/01/17 08:00:35;;;;;;;;;;;2.00;99.90;;;;;;5000308;28;19922;-77
2023/01/17 08:03:01;;;;;;;;;;;1.90;99.90;;;;;;4991559;28;19921;-73
2023/01/17 08:05:27;;;;;;;;;;;1.80;99.90;;;;;;4995143;28;20388;-76
2023/01/17 08:07:52;;;;;;;;;;;1.80;99.90;;;;;;4994091;28;19917;-78
2023/01/17 08:10:18;;;;;;;;;;;1.90;99.90;;;;;;5016753;28;20406;-77
2023/01/17 08:12:47;;;;;;;;;;;1.90;99.90;;;;;;4994584;28;19996;-80
2023/01/17 08:15:16;;;;;;;;;;;1.90;99.90;;;;;;5002877;28;19967;-76
2023/01/17 08:17:45;;;;;;;;;;;1.90;99.90;;;;;;5002267;28;19913;-78
2023/01/17 08:20:11;;;;;;;;;;;1.90;99.90;;;;;;4997013;28;19910;-79
2023/01/17 08:22:37;;;;;;;;;;;1.90;99.90;;;;;;5008113;28;20425;-78
2023/01/17 08:25:02;;;;;;;;;;;2.00;99.90;;;;;;5013904;28;19914;-79
2023/01/17 08:27:28;;;;;;;;;;;2.10;99.90;;;;;;5018018;28;20055;-74
2023/01/17 08:29:53;;;;;;;;;;;2.10;99.90;;;;;;5012813;28;19909;-79
2023/01/17 08:32:20;;;;;;;;;;;2.10;99.90;;;;;;5011233;28;20448;-79
2023/01/17 08:34:46;;;;;;;;;;;2.20;99.90;;;;;;5015196;28;20589;-76
2023/01/17 08:37:11;;;;;;;;;;;2.20;99.90;;;;;;5011857;28;19925;-78
2023/01/17 08:39:37;;;;;;;;;;;2.20;99.90;;;;;;5002429;28;20298;-79
2023/01/17 08:42:02;;;;;;;;;;;2.10;99.90;;;;;;5013885;28;19920;-76
2023/01/17 08:44:28;;;;;;;;;;;2.10;99.90;;;;;;5018600;28;19976;-77
2023/01/17 08:46:53;;;;;;;;;;;2.20;99.90;;;;;;5009205;28;19941;-78
2023/01/17 08:49:19;;;;;;;;;;;2.20;99.90;;;;;;5013474;28;19937;-76
2023/01/17 08:51:44;;;;;;;;;;;2.20;99.90;;;;;;5032344;28;20337;-76
2023/01/17 08:54:12;;;;;;;;;;;2.20;99.90;;;;;;5016694;28;20551;-77
2023/01/17 08:56:38;;;;;;;;;;;2.30;99.90;;;;;;5008468;28;19914;-74
2023/01/17 08:59:03;;;;;;;;;;;2.30;99.90;;;;;;5017416;28;20386;-76
2023/01/17 09:01:29;;;;;;;;;;;2.30;99.90;;;;;;5004663;28;19921;-77
2023/01/17 09:03:55;;;;;;;;;;;2.40;99.90;;;;;;5010823;28;19987;-75
2023/01/17 09:06:20;;;;;;;;;;;2.40;99.90;;;;;;5013292;28;19988;-78
2023/01/17 09:08:46;;;;;;;;;;;2.40;99.90;;;;;;5003057;28;20203;-75
2023/01/17 09:11:14;;;;;;;;;;;2.40;99.90;;;;;;5008783;28;20266;-75
2023/01/17 09:13:40;;;;;;;;;;;2.30;99.90;;;;;;5005485;28;20443;-77
2023/01/17 09:16:06;;;;;;;;;;;2.30;99.90;;;;;;4997209;28;19921;-78
2023/01/17 09:18:32;;;;;;;;;;;2.30;99.90;;;;;;5016759;28;19984;-78
2023/01/17 09:20:58;;;;;;;;;;;2.40;99.90;;;;;;4996970;28;20407;-77
2023/01/17 09:23:24;;;;;;;;;;;2.40;99.90;;;;;;5006623;28;19921;-75
2023/01/17 09:25:53;;;;;;;;;;;2.50;99.90;;;;;;5005237;28;19909;-75
2023/01/17 09:28:19;;;;;;;;;;;2.50;99.90;;;;;;5020309;28;19909;-75
2023/01/17 09:30:45;;;;;;;;;;;2.60;99.90;;;;;;5008999;28;19920;-76
2023/01/17 09:33:11;;;;;;;;;;;2.60;99.90;;;;;;5001843;28;20008;-76
2023/01/17 09:35:36;;;;;;;;;;;2.60;99.90;;;;;;5011552;28;20009;-77
2023/01/17 09:38:02;;;;;;;;;;;2.70;99.90;;;;;;5008042;28;19914;-76
2023/01/17 09:40:27;;;;;;;;;;;2.90;99.90;;;;;;5007016;28;19921;-74
2023/01/17 09:42:56;;;;;;;;;;;3.00;99.90;;;;;;4998965;28;19910;-78
2023/01/17 09:45:30;;;;;;;;;;;3.00;99.90;;;;;;5008978;28;19952;-77
2023/01/17 09:47:56;;;;;;;;;;;3.00;99.90;;;;;;5005989;28;19921;-78
2023/01/17 09:50:34;;;;;;;;;;;3.00;99.90;;;;;;5016076;28;19910;-77
2023/01/17 09:53:04;;;;;;;;;;;3.00;99.90;;;;;;5016211;28;19909;-78
2023/01/17 09:55:41;;;;;;;;;;;3.20;99.90;;;;;;5010266;28;19925;-80
2023/01/17 09:58:09;;;;;;;;;;;3.20;99.90;;;;;;5027130;28;19917;-77
2023/01/17 10:00:39;;;;;;;;;;;3.30;99.90;;;;;;5016754;28;19914;-78
2023/01/17 10:03:19;;;;;;;;;;;3.20;99.90;;;;;;5025795;28;19951;-78
2023/01/17 10:06:00;;;;;;;;;;;3.20;99.90;;;;;;5008487;28;19940;-75
2023/01/17 10:08:44;;;;;;;;;;;3.20;99.90;;;;;;5006160;28;20465;-75
2023/01/17 10:11:12;;;;;;;;;;;3.20;99.90;;;;;;5006904;28;19910;-75
2023/01/17 10:13:52;;;;;;;;;;;3.20;99.90;;;;;;5001707;28;19916;-76
2023/01/17 10:16:31;;;;;;;;;;;3.20;99.90;;;;;;4999696;28;19920;-76
2023/01/17 10:19:35;;;;;;;;;;;3.10;99.90;;;;;;5026214;28;19913;-75
2023/01/17 10:22:01;;;;;;;;;;;3.30;99.90;;;;;;4962414;28;20045;-75
2023/01/17 10:24:46;;;;;;;;;;;3.40;99.90;;;;;;4957477;28;19911;-77
2023/01/17 10:27:19;;;;;;;;;;;3.50;99.90;;;;;;4991687;28;20177;-76
2023/01/17 10:29:46;;;;;;;;;;;3.30;99.90;;;;;;5016591;28;19917;-74
2023/01/17 10:32:13;;;;;;;;;;;3.40;99.90;;;;;;5008868;28;20000;-77
2023/01/17 10:34:43;;;;;;;;;;;3.70;99.90;;;;;;5005012;28;19987;-79
2023/01/17 10:37:21;;;;;;;;;;;3.80;99.90;;;;;;4999653;28;19941;-76
2023/01/17 10:39:48;;;;;;;;;;;3.90;99.90;;;;;;5004302;28;19917;-76
2023/01/17 10:42:36;;;;;;;;;;;3.90;99.90;;;;;;5002696;28;20000;-76
2023/01/17 10:45:27;;;;;;;;;;;3.90;99.90;;;;;;5014545;28;19913;-76
2023/01/17 10:48:12;;;;;;;;;;;4.00;99.90;;;;;;5019502;28;19910;-80
2023/01/17 10:50:51;;;;;;;;;;;4.20;99.90;;;;;;5009661;28;19976;-77
2023/01/17 10:53:29;;;;;;;;;;;4.10;99.90;;;;;;5019635;28;19953;-76
2023/01/17 10:55:54;;;;;;;;;;;3.90;99.90;;;;;;5017807;28;19913;-79
2023/01/17 10:58:20;;;;;;;;;;;3.80;99.90;;;;;;5003130;28;19917;-76
2023/01/17 11:00:51;;;;;;;;;;;3.70;99.90;;;;;;5015612;28;20204;-77
2023/01/17 11:03:19;;;;;;;;;;;3.60;99.90;;;;;;5010824;28;19910;-77
2023/01/17 11:06:07;;;;;;;;;;;3.60;99.90;;;;;;5016334;28;20206;-79
2023/01/17 11:08:49;;;;;;;;;;;3.60;99.90;;;;;;5002126;28;19910;-76
2023/01/17 11:11:15;;;;;;;;;;;3.70;99.90;;;;;;5001525;28;19925;-79
2023/01/17 11:13:40;;;;;;;;;;;3.70;99.90;;;;;;5012235;28;19918;-81
2023/01/17 11:16:07;;;;;;;;;;;3.80;99.90;;;;;;5004831;28;19968;-78
2023/01/17 11:18:39;;;;;;;;;;;3.90;99.90;;;;;;5000282;28;20041;-78
2023/01/17 11:21:10;;;;;;;;;;;3.90;99.90;;;;;;5002676;28;19917;-79
2023/01/17 11:23:35;;;;;;;;;;;3.90;99.90;;;;;;5007568;28;19913;-74
2023/01/17 11:26:03;;;;;;;;;;;3.90;99.90;;;;;;5000362;28;19909;-76
2023/01/17 11:28:30;;;;;;;;;;;3.90;99.90;;;;;;4996848;28;20651;-78
2023/01/17 11:30:57;;;;;;;;;;;3.90;99.90;;;;;;5010242;28;20477;-78
2023/01/17 11:33:32;;;;;;;;;;;4.10;99.90;;;;;;5008943;28;19959;-76
2023/01/17 11:35:58;;;;;;;;;;;4.70;99.90;;;;;;4995891;28;20370;-78
2023/01/17 11:38:24;;;;;;;;;;;5.20;99.90;;;;;;5006718;28;19996;-77
2023/01/17 11:40:52;;;;;;;;;;;5.10;99.90;;;;;;5001815;28;19972;-76
2023/01/17 11:43:25;;;;;;;;;;;5.20;99.90;;;;;;5007700;28;20048;-78
2023/01/17 11:46:03;;;;;;;;;;;5.30;99.90;;;;;;5011871;28;19917;-77
2023/01/17 11:48:33;;;;;;;;;;;5.50;99.90;;;;;;5008697;28;20000;-79
2023/01/17 11:50:58;;;;;;;;;;;5.20;99.90;;;;;;5011333;28;19949;-75
2023/01/17 11:53:35;;;;;;;;;;;5.40;99.90;;;;;;5014834;28;19956;-78
2023/01/17 11:56:01;;;;;;;;;;;5.50;99.90;;;;;;5017430;28;19976;-78
2023/01/17 11:58:27;;;;;;;;;;;5.50;99.90;;;;;;5008585;28;19917;-78
2023/01/17 12:01:00;;;;;;;;;;;5.80;99.90;;;;;;5010522;28;20003;-79
2023/01/17 12:03:35;;;;;;;;;;;6.20;99.90;;;;;;4999739;28;20005;-76
2023/01/17 12:06:13;;;;;;;;;;;6.30;99.90;;;;;;5000631;28;20323;-75
2023/01/17 12:09:08;;;;;;;;;;;6.30;99.90;;;;;;5007653;28;20406;-77
2023/01/17 12:13:59;;;;;;;;;;;6.20;99.90;;;;;;5006056;28;19909;-77
2023/01/17 12:14:28;;;;;;;;;;;6.20;99.90;;;;;;5006046;28;19917;-75
2023/01/17 12:17:10;;;;;;;;;;;6.10;99.90;;;;;;5011033;28;19921;-74
2023/01/17 12:19:56;;;;;;;;;;;5.90;99.90;;;;;;5003019;28;19920;-75
2023/01/17 12:22:21;;;;;;;;;;;6.00;99.90;;;;;;5007404;28;19916;-77
2023/01/17 12:24:54;;;;;;;;;;;6.40;99.90;;;;;;4999465;28;20282;-76
2023/01/17 12:27:22;;;;;;;;;;;6.40;99.90;;;;;;5005141;28;19963;-75
2023/01/17 12:30:02;;;;;;;;;;;6.70;99.90;;;;;;5003895;28;20425;-76
2023/01/17 12:32:33;;;;;;;;;;;6.60;99.90;;;;;;5001602;28;19910;-76
2023/01/17 12:35:14;;;;;;;;;;;6.20;99.90;;;;;;5000752;28;19948;-75
2023/01/17 12:37:51;;;;;;;;;;;6.00;99.90;;;;;;5008491;28;19932;-76
2023/01/17 12:40:16;;;;;;;;;;;6.20;99.90;;;;;;5005965;28;20274;-76
2023/01/17 12:42:45;;;;;;;;;;;5.80;99.90;;;;;;5010226;28;19914;-74
2023/01/17 12:45:19;;;;;;;;;;;5.70;99.90;;;;;;5001432;28;20395;-77
2023/01/17 12:47:46;;;;;;;;;;;6.10;99.90;;;;;;5008374;28;19963;-77
2023/01/17 12:50:15;;;;;;;;;;;6.50;99.90;;;;;;5013450;28;19917;-76
2023/01/17 12:52:54;;;;;;;;;;;6.60;99.90;;;;;;5002986;28;20407;-74
2023/01/17 12:55:25;;;;;;;;;;;6.60;99.90;;;;;;5022507;28;19951;-76
2023/01/17 12:57:55;;;;;;;;;;;6.70;99.90;;;;;;5011629;28;19924;-76
2023/01/17 13:00:24;;;;;;;;;;;6.30;99.90;;;;;;5006415;28;19913;-77
2023/01/17 13:02:52;;;;;;;;;;;6.50;99.90;;;;;;5003808;28;19913;-75
2023/01/17 13:05:22;;;;;;;;;;;6.60;99.90;;;;;;5000852;28;19914;-76
2023/01/17 13:07:57;;;;;;;;;;;6.70;99.90;;;;;;5006423;28;19922;-75
2023/01/17 13:10:27;;;;;;;;;;;6.80;99.90;;;;;;5013196;28;20622;-77
2023/01/17 13:12:55;;;;;;;;;;;6.80;99.90;;;;;;5008405;28;20642;-78
2023/01/17 13:15:23;;;;;;;;;;;6.70;99.90;;;;;;5023567;28;20680;-79
2023/01/17 13:18:01;;;;;;;;;;;6.70;99.90;;;;;;5019550;28;19976;-76
2023/01/17 13:20:46;;;;;;;;;;;6.90;99.90;;;;;;5019342;28;20370;-77
2023/01/17 13:23:28;;;;;;;;;;;7.20;99.90;;;;;;5017356;28;19971;-79
2023/01/17 13:25:55;;;;;;;;;;;6.90;99.90;;;;;;5005403;28;20307;-78
2023/01/17 13:28:28;;;;;;;;;;;6.80;99.90;;;;;;5014785;28;19946;-75
2023/01/17 13:31:01;;;;;;;;;;;6.70;99.90;;;;;;5006624;28;19910;-79
2023/01/17 13:33:34;;;;;;;;;;;6.40;99.90;;;;;;5000027;28;19988;-77
2023/01/17 13:36:18;;;;;;;;;;;5.60;99.90;;;;;;5006800;28;19917;-76
2023/01/17 13:38:43;;;;;;;;;;;5.50;99.90;;;;;;5007240;28;19913;-76
2023/01/17 13:41:08;;;;;;;;;;;5.30;99.90;;;;;;5023332;28;19909;-77
2023/01/17 13:43:38;;;;;;;;;;;5.30;99.90;;;;;;5008773;28;20322;-75
2023/01/17 13:46:05;;;;;;;;;;;5.20;99.90;;;;;;5007262;28;19910;-74
2023/01/17 13:48:32;;;;;;;;;;;5.00;99.90;;;;;;5009997;28;19970;-74
2023/01/17 13:50:58;;;;;;;;;;;4.90;99.90;;;;;;5023692;28;19909;-75
2023/01/17 13:53:27;;;;;;;;;;;4.90;99.90;;;;;;5016306;28;19913;-74
2023/01/17 13:55:58;;;;;;;;;;;4.90;99.90;;;;;;5021673;28;19914;-79
2023/01/17 13:58:27;;;;;;;;;;;4.70;99.90;;;;;;5014317;28;19917;-77
2023/01/17 14:00:53;;;;;;;;;;;4.70;99.90;;;;;;5021318;28;20323;-73
2023/01/17 14:03:39;;;;;;;;;;;4.70;99.90;;;;;;5018844;28;20082;-74
2023/01/17 14:06:25;;;;;;;;;;;4.80;99.90;;;;;;4997361;28;19921;-74
2023/01/17 14:08:51;;;;;;;;;;;4.80;99.90;;;;;;5014521;28;20378;-75
2023/01/17 14:11:16;;;;;;;;;;;4.90;99.90;;;;;;5007847;28;19915;-76
2023/01/17 14:13:42;;;;;;;;;;;5.00;99.90;;;;;;5005687;28;20126;-75
2023/01/17 14:16:28;;;;;;;;;;;5.10;99.90;;;;;;5022778;28;19913;-76
2023/01/17 14:18:54;;;;;;;;;;;5.20;99.90;;;;;;5018349;28;19910;-75
2023/01/17 14:21:24;;;;;;;;;;;5.10;99.90;;;;;;5013465;28;20092;-76
2023/01/17 14:24:04;;;;;;;;;;;4.90;99.90;;;;;;5013321;28;19959;-76
2023/01/17 14:26:29;;;;;;;;;;;4.70;99.90;;;;;;5027062;28;20401;-75
2023/01/17 14:28:56;;;;;;;;;;;4.70;99.90;;;;;;5005792;28;20278;-77
2023/01/17 14:31:22;;;;;;;;;;;4.60;99.90;;;;;;5013150;28;19909;-75
2023/01/17 14:33:48;;;;;;;;;;;4.60;99.90;;;;;;5008336;28;19929;-74
2023/01/17 14:36:24;;;;;;;;;;;4.60;99.90;;;;;;5008116;28;19920;-76
2023/01/17 14:38:50;;;;;;;;;;;4.60;99.90;;;;;;5020298;28;19910;-75
2023/01/17 14:41:20;;;;;;;;;;;4.60;99.90;;;;;;5023774;28;19916;-76
2023/01/17 14:43:47;;;;;;;;;;;4.60;99.90;;;;;;5024475;28;19917;-76
2023/01/17 14:46:31;;;;;;;;;;;4.50;99.90;;;;;;5006607;28;19909;-76
2023/01/17 14:49:00;;;;;;;;;;;4.50;99.90;;;;;;5023675;28;19913;-75
2023/01/17 14:51:27;;;;;;;;;;;4.40;99.90;;;;;;5026700;28;20015;-75
2023/01/17 14:53:56;;;;;;;;;;;4.40;99.90;;;;;;5014440;28;20403;-75
2023/01/17 14:56:22;;;;;;;;;;;4.40;99.90;;;;;;5001841;28;20001;-75
2023/01/17 14:58:47;;;;;;;;;;;4.40;99.90;;;;;;5007461;28;20004;-74
2023/01/17 15:01:14;;;;;;;;;;;4.40;99.90;;;;;;4999106;28;20371;-76
2023/01/17 15:03:50;;;;;;;;;;;4.30;99.90;;;;;;5011008;28;19921;-76
2023/01/17 15:06:17;;;;;;;;;;;4.30;99.90;;;;;;5003003;28;19917;-76
2023/01/17 15:08:43;;;;;;;;;;;4.30;99.90;;;;;;4999842;28;19914;-77
2023/01/17 15:11:14;;;;;;;;;;;4.30;99.90;;;;;;4992384;28;19910;-76
2023/01/17 15:13:41;;;;;;;;;;;4.30;99.90;;;;;;5016369;28;19910;-77
2023/01/17 15:16:16;;;;;;;;;;;4.30;99.90;;;;;;5004441;28;19983;-76
2023/01/17 15:18:41;;;;;;;;;;;4.40;99.90;;;;;;5016114;28;19929;-77
2023/01/17 15:21:12;;;;;;;;;;;4.20;99.90;;;;;;5034752;28;19914;-79
2023/01/17 15:23:41;;;;;;;;;;;4.30;99.90;;;;;;5029689;28;19909;-77
2023/01/17 15:26:09;;;;;;;;;;;4.20;99.90;;;;;;5025497;28;19918;-77
2023/01/17 15:28:35;;;;;;;;;;;4.20;99.90;;;;;;5017453;28;19922;-77
2023/01/17 15:31:10;;;;;;;;;;;4.20;99.90;;;;;;5027660;28;19917;-75
2023/01/17 15:33:40;;;;;;;;;;;4.10;99.90;;;;;;5037906;28;19933;-75
2023/01/17 15:36:08;;;;;;;;;;;4.20;99.90;;;;;;5022563;28;19920;-76
2023/01/17 15:38:36;;;;;;;;;;;4.20;99.90;;;;;;5020119;28;19932;-75
2023/01/17 15:41:10;;;;;;;;;;;4.20;99.90;;;;;;5014842;28;20365;-76
2023/01/17 15:43:36;;;;;;;;;;;4.30;99.90;;;;;;5028696;28;19964;-75
2023/01/17 15:46:03;;;;;;;;;;;4.10;99.90;;;;;;5001943;28;19913;-75
2023/01/17 15:48:29;;;;;;;;;;;4.00;99.90;;;;;;4997511;28;19924;-77
2023/01/17 15:50:57;;;;;;;;;;;3.90;99.90;;;;;;4990028;28;19914;-77
2023/01/17 15:53:31;;;;;;;;;;;3.90;99.90;;;;;;5006930;28;19921;-75
2023/01/17 15:55:57;;;;;;;;;;;4.00;99.90;;;;;;5008868;28;19920;-76
2023/01/17 15:58:28;;;;;;;;;;;3.90;99.90;;;;;;4998671;28;20477;-76
2023/01/17 16:00:54;;;;;;;;;;;3.70;99.90;;;;;;4998901;28;20131;-76
2023/01/17 16:03:23;;;;;;;;;;;3.70;99.90;;;;;;5009830;28;19909;-75